Terminal Aerodrome Forecast
Issued by NWS

Home | Current Version | Previous Version | Text Only | Print | Product List | Glossary On
Versions: 1 2 3 4 5 6 7 8 9 10 11 12 13 14 15
000
FTUS41 KBOX 231124
TAFACK
TAF
KACK 231124Z 2312/2412 24009KT P6SM BKN250
     FM231500 26010KT P6SM -SHRA BKN050
     FM231900 27018KT P6SM BKN035
     FM240000 31018G28KT P6SM BKN040=

USA.gov is the U.S. government's official web portal to all federal, state and local government web resources and services.